Time;durP1;ratioP1;P1;durP2;ratioP2;P2;SDS_P1;SDS_P2;PMS_P1;PMS_P2;Temp;Humidity;BMP_temperature;BMP_pressure;BME280_temperature;BME280_humidity;BME280_pressure;Samples;Min_cycle;Max_cycle;Signal;HPM_P1;HPM_P2
2022/06/10 00:02:09;;;;;;;3.67;1.80;;;;;;;13.63;83.99;98661.88;5013918;28;20233;-69
2022/06/10 00:04:36;;;;;;;4.13;1.70;;;;;;;13.65;83.47;98657.91;5013981;28;20239;-68
2022/06/10 00:07:02;;;;;;;6.50;2.13;;;;;;;13.52;84.58;98655.41;5013960;28;20237;-69
2022/06/10 00:09:29;;;;;;;2.57;1.80;;;;;;;13.55;85.26;98654.97;5013500;28;20815;-68
2022/06/10 00:11:55;;;;;;;3.80;1.87;;;;;;;13.62;85.92;98661.03;5013948;28;20294;-69
2022/06/10 00:14:22;;;;;;;3.93;1.90;;;;;;;13.59;85.30;98663.34;5013832;28;20209;-68
2022/06/10 00:16:48;;;;;;;4.23;1.77;;;;;;;13.57;85.29;98666.22;5013831;28;20293;-69
2022/06/10 00:19:15;;;;;;;2.60;1.60;;;;;;;13.52;85.32;98662.63;5013431;28;20314;-68
2022/06/10 00:21:41;;;;;;;3.43;1.90;;;;;;;13.47;85.66;98659.81;5013824;28;20218;-69
2022/06/10 00:24:08;;;;;;;2.93;1.93;;;;;;;13.45;86.35;98664.53;5013712;28;20236;-69
2022/06/10 00:26:35;;;;;;;2.37;1.80;;;;;;;13.44;86.17;98655.72;5013760;28;20300;-68
2022/06/10 00:29:02;;;;;;;4.23;1.80;;;;;;;13.38;87.54;98659.25;5013971;28;20236;-68
2022/06/10 00:31:29;;;;;;;3.63;1.87;;;;;;;13.29;87.58;98655.25;5013738;28;20647;-69
2022/06/10 00:33:55;;;;;;;2.37;1.70;;;;;;;13.26;88.09;98650.38;5013440;28;20732;-69
2022/06/10 00:36:23;;;;;;;3.40;2.07;;;;;;;13.30;88.39;98654.19;5013691;28;20291;-69
2022/06/10 00:38:50;;;;;;;3.27;1.83;;;;;;;13.20;89.18;98658.44;5013546;28;20280;-68
2022/06/10 00:41:16;;;;;;;5.03;1.70;;;;;;;13.13;88.72;98653.16;5013597;28;20209;-69
2022/06/10 00:43:43;;;;;;;4.80;1.90;;;;;;;13.13;89.20;98663.03;5013508;28;20256;-69
2022/06/10 00:46:36;;;;;;;3.87;1.80;;;;;;;13.07;89.37;98667.38;5013260;28;20210;-69
2022/06/10 00:49:11;;;;;;;2.63;1.67;;;;;;;12.93;90.13;98667.69;5013248;28;20665;-68
2022/06/10 00:51:44;;;;;;;3.53;1.90;;;;;;;12.99;90.00;98665.00;5013628;28;20197;-69
2022/06/10 00:54:21;;;;;;;3.37;2.07;;;;;;;12.91;90.27;98665.25;5013560;28;20206;-69
2022/06/10 00:56:54;;;;;;;4.33;2.10;;;;;;;12.86;91.29;98662.41;5015495;28;20197;-68
2022/06/10 00:59:24;;;;;;;4.53;1.77;;;;;;;12.78;90.87;98660.03;5017419;28;20323;-69
2022/06/10 01:02:04;;;;;;;4.37;2.27;;;;;;;12.78;91.37;98662.69;5016151;28;20224;-68
2022/06/10 01:04:31;;;;;;;3.40;1.93;;;;;;;12.72;91.66;98666.25;5017200;28;20196;-68
2022/06/10 01:06:58;;;;;;;4.23;1.97;;;;;;;12.77;91.76;98668.25;5017164;28;20239;-69
2022/06/10 01:09:26;;;;;;;4.40;2.00;;;;;;;12.79;90.56;98666.97;5016648;28;20693;-69
2022/06/10 01:11:58;;;;;;;2.00;1.80;;;;;;;12.77;91.49;98676.25;5017077;28;20215;-69
2022/06/10 01:14:34;;;;;;;4.43;2.20;;;;;;;12.79;91.08;98675.00;5015645;28;20734;-68
2022/06/10 01:17:33;;;;;;;4.60;2.20;;;;;;;12.79;91.32;98666.19;5015895;28;20283;-69
2022/06/10 01:20:07;;;;;;;2.73;1.90;;;;;;;12.75;92.06;98671.13;5008164;28;20299;-69
2022/06/10 01:23:16;;;;;;;3.90;2.27;;;;;;;12.77;92.51;98670.91;5016544;28;20570;-69
2022/06/10 01:26:17;;;;;;;4.30;2.10;;;;;;;12.76;92.58;98671.94;5015412;28;20666;-69
2022/06/10 01:28:49;;;;;;;4.80;2.07;;;;;;;12.73;92.99;98670.53;5016481;28;20655;-69
2022/06/10 01:31:30;;;;;;;5.07;2.00;;;;;;;12.69;93.10;98666.66;5016655;28;20604;-69
2022/06/10 01:34:08;;;;;;;4.27;2.23;;;;;;;12.69;93.78;98680.00;5015569;28;20208;-68
2022/06/10 01:36:50;;;;;;;4.57;2.13;;;;;;;12.75;91.85;98675.66;5016356;28;20214;-69
2022/06/10 01:39:41;;;;;;;6.27;2.40;;;;;;;12.69;92.53;98677.34;5016295;28;20727;-69
2022/06/10 01:42:22;;;;;;;4.97;2.20;;;;;;;12.66;92.93;98682.28;5016184;28;20198;-68
2022/06/10 01:45:07;;;;;;;4.07;2.37;;;;;;;12.56;93.39;98676.59;5015047;28;20220;-69
2022/06/10 01:48:17;;;;;;;5.43;2.03;;;;;;;12.55;93.53;98677.63;5016404;28;20298;-68
2022/06/10 01:50:56;;;;;;;4.10;2.30;;;;;;;12.55;93.50;98686.47;5016420;28;20283;-69
2022/06/10 01:53:34;;;;;;;3.23;2.20;;;;;;;12.59;93.33;98692.19;5016403;28;20279;-68
2022/06/10 01:56:03;;;;;;;4.37;2.37;;;;;;;12.65;93.62;98686.81;5016308;28;20188;-69
2022/06/10 01:58:48;;;;;;;4.70;2.33;;;;;;;12.54;93.71;98690.19;5016160;28;20311;-69
2022/06/10 02:01:21;;;;;;;6.70;2.40;;;;;;;12.61;93.78;98690.13;5015086;28;20287;-68
2022/06/10 02:03:52;;;;;;;3.37;2.60;;;;;;;12.57;94.53;98684.38;5016115;28;20212;-68
2022/06/10 02:06:32;;;;;;;3.67;2.20;;;;;;;12.51;93.72;98685.25;5016186;28;20192;-68
2022/06/10 02:09:02;;;;;;;5.27;2.70;;;;;;;12.40;94.22;98685.97;5014698;28;20234;-69
2022/06/10 02:11:33;;;;;;;3.37;2.33;;;;;;;12.38;95.17;98696.00;5015754;28;20191;-69
2022/06/10 02:14:15;;;;;;;3.80;2.30;;;;;;;12.36;95.58;98697.25;5015687;28;20287;-68
2022/06/10 02:16:45;;;;;;;6.53;2.63;;;;;;;12.36;95.56;98690.09;5015898;28;20282;-69
2022/06/10 02:19:41;;;;;;;5.47;2.70;;;;;;;12.35;95.17;98695.63;5015820;28;20318;-68
2022/06/10 02:22:14;;;;;;;4.43;2.40;;;;;;;12.29;95.77;98697.28;5015780;28;20277;-69
2022/06/10 02:25:12;;;;;;;4.40;2.80;;;;;;;12.33;95.38;98703.84;5015727;28;20242;-69
2022/06/10 02:27:43;;;;;;;6.07;2.90;;;;;;;12.25;96.06;98708.63;5011152;28;20219;-68
2022/06/10 02:30:19;;;;;;;5.13;2.60;;;;;;;12.25;95.78;98703.28;5015327;28;20288;-69
2022/06/10 02:32:47;;;;;;;5.07;2.83;;;;;;;12.32;96.12;98704.03;5015223;28;20260;-69
2022/06/10 02:35:16;;;;;;;4.10;2.60;;;;;;;12.25;95.92;98705.94;5015488;28;20213;-69
2022/06/10 02:38:06;;;;;;;4.67;2.57;;;;;;;12.27;95.55;98714.53;5015271;28;20232;-68
2022/06/10 02:40:41;;;;;;;2.90;2.47;;;;;;;12.24;95.49;98709.63;5015320;28;20278;-68
2022/06/10 02:43:16;;;;;;;5.73;2.70;;;;;;;12.23;96.04;98716.81;5014025;28;20289;-69
2022/06/10 02:46:07;;;;;;;6.23;2.53;;;;;;;12.21;96.27;98710.88;5014886;28;20674;-69
2022/06/10 02:48:39;;;;;;;6.40;2.90;;;;;;;12.22;96.05;98707.19;5015190;28;20319;-68
2022/06/10 02:51:05;;;;;;;4.67;2.47;;;;;;;12.23;95.75;98708.00;5014553;28;20223;-68
2022/06/10 02:53:33;;;;;;;4.30;2.67;;;;;;;12.24;95.57;98718.44;5015127;28;20204;-69
2022/06/10 02:55:59;;;;;;;6.27;2.37;;;;;;;12.21;96.37;98718.88;5015062;28;20298;-69
2022/06/10 03:01:40;;;;;;;6.53;2.50;;;;;;;12.31;94.78;98721.09;5014982;28;20692;-68
2022/06/10 03:04:15;;;;;;;3.97;2.53;;;;;;;12.33;94.44;98729.69;5013817;28;20308;-68
2022/06/10 03:06:50;;;;;;;7.63;2.60;;;;;;;12.24;95.48;98723.78;5015749;28;20187;-68
2022/06/10 03:09:34;;;;;;;3.97;2.80;;;;;;;12.27;95.95;98730.53;5014482;28;20234;-69
2022/06/10 03:12:16;;;;;;;4.97;2.37;;;;;;;12.23;95.97;98734.66;5014324;28;20194;-69
2022/06/10 03:15:10;;;;;;;5.23;2.80;;;;;;;12.22;96.35;98744.53;5014453;28;20195;-69
2022/06/10 03:18:01;;;;;;;6.00;2.70;;;;;;;12.20;96.37;98743.09;5014345;28;20279;-69
2022/06/10 03:20:58;;;;;;;4.73;2.30;;;;;;;12.19;96.62;98741.44;5014579;28;20195;-69
2022/06/10 03:23:53;;;;;;;4.57;2.60;;;;;;;12.20;95.84;98741.22;5014576;28;20302;-68
2022/06/10 03:26:54;;;;;;;6.50;2.70;;;;;;;12.17;96.05;98746.97;4996106;28;20218;-69
2022/06/10 03:29:36;;;;;;;3.57;2.23;;;;;;;12.24;95.89;98747.78;5014434;28;20227;-68
2022/06/10 03:32:17;;;;;;;4.93;2.50;;;;;;;12.23;96.53;98750.66;5014493;28;20197;-68
2022/06/10 03:34:48;;;;;;;3.83;2.40;;;;;;;12.19;96.41;98750.25;5014230;28;20278;-69
2022/06/10 03:37:18;;;;;;;3.87;2.40;;;;;;;12.18;96.26;98759.31;5014310;28;20669;-68
2022/06/10 03:39:52;;;;;;;6.23;2.63;;;;;;;12.15;95.93;98751.72;5013907;28;20772;-68
2022/06/10 03:42:20;;;;;;;4.07;2.60;;;;;;;12.22;94.65;98763.19;5013048;28;20249;-68
2022/06/10 03:44:50;;;;;;;4.47;2.50;;;;;;;12.21;95.00;98761.53;5013827;28;20226;-68
2022/06/10 03:47:25;;;;;;;5.07;2.30;;;;;;;12.22;94.12;98763.19;5014404;28;20274;-68
2022/06/10 03:49:56;;;;;;;3.47;2.60;;;;;;;12.18;95.35;98763.81;5014666;28;20194;-68
2022/06/10 03:52:27;;;;;;;3.50;2.60;;;;;;;12.15;95.82;98766.88;5014198;28;20191;-69
2022/06/10 03:54:54;;;;;;;4.40;2.37;;;;;;;12.16;95.69;98774.66;5014163;28;20226;-69
2022/06/10 03:57:20;;;;;;;4.90;2.60;;;;;;;12.19;95.69;98771.59;5013996;28;20208;-69
2022/06/10 03:59:47;;;;;;;4.57;2.93;;;;;;;12.18;94.98;98767.28;5013898;28;20210;-68
2022/06/10 04:02:14;;;;;;;5.80;2.70;;;;;;;12.19;94.61;98771.59;5013695;28;20295;-68
2022/06/10 04:04:42;;;;;;;4.80;2.30;;;;;;;12.13;94.94;98776.94;5013590;28;20257;-69
2022/06/10 04:07:10;;;;;;;7.57;2.63;;;;;;;12.15;94.76;98767.72;5013508;28;20616;-69
2022/06/10 04:09:36;;;;;;;3.63;2.60;;;;;;;12.17;95.15;98778.97;5013401;28;20234;-69
2022/06/10 04:12:03;;;;;;;6.47;2.60;;;;;;;12.21;94.81;98785.50;5013486;28;20565;-69
2022/06/10 04:14:29;;;;;;;6.73;3.33;;;;;;;12.13;94.61;98785.78;5013457;28;20297;-69
2022/06/10 04:16:56;;;;;;;8.90;3.00;;;;;;;12.21;94.57;98782.84;5013768;28;20293;-69
2022/06/10 04:19:23;;;;;;;7.57;3.40;;;;;;;12.27;93.94;98787.34;5013492;28;20317;-69
2022/06/10 04:21:49;;;;;;;11.27;3.97;;;;;;;12.27;94.02;98794.53;5014224;28;20294;-69
2022/06/10 04:24:16;;;;;;;9.77;4.33;;;;;;;12.20;94.62;98794.53;5013054;28;20309;-69
2022/06/10 04:26:42;;;;;;;9.90;4.10;;;;;;;12.21;94.44;98792.72;5013051;28;20272;-68
2022/06/10 04:29:10;;;;;;;9.57;4.23;;;;;;;12.24;94.18;98795.75;5013206;28;20314;-69
2022/06/10 04:31:37;;;;;;;6.80;3.60;;;;;;;12.23;93.92;98790.63;5015023;28;20203;-69
2022/06/10 04:34:04;;;;;;;8.00;3.60;;;;;;;12.20;93.73;98791.88;5017308;28;20693;-69
2022/06/10 04:36:30;;;;;;;7.37;3.00;;;;;;;12.26;93.79;98792.91;5017526;28;20207;-68
2022/06/10 04:38:57;;;;;;;7.67;3.03;;;;;;;12.26;93.61;98793.69;5017419;28;20534;-69
2022/06/10 04:41:23;;;;;;;5.83;2.83;;;;;;;12.37;93.47;98795.72;5017356;28;20297;-69
2022/06/10 04:43:50;;;;;;;6.47;3.00;;;;;;;12.45;93.24;98802.66;5016830;28;20230;-69
2022/06/10 04:46:38;;;;;;;7.37;3.50;;;;;;;12.48;93.20;98797.69;5017763;28;20213;-68
2022/06/10 04:49:06;;;;;;;6.47;2.80;;;;;;;12.51;92.73;98804.44;5017019;28;20587;-68
2022/06/10 04:51:33;;;;;;;6.50;2.90;;;;;;;12.56;92.68;98804.63;5016602;28;20667;-69
2022/06/10 04:54:00;;;;;;;8.37;2.90;;;;;;;12.65;91.62;98803.34;5017119;28;20208;-68
2022/06/10 04:56:26;;;;;;;5.83;2.63;;;;;;;12.80;90.71;98798.56;5017173;28;20203;-69
2022/06/10 04:58:53;;;;;;;6.17;3.37;;;;;;;12.81;91.48;98802.84;5016809;28;20230;-68
2022/06/10 05:01:19;;;;;;;8.33;3.00;;;;;;;12.83;90.08;98803.44;5016921;28;20389;-68
2022/06/10 05:03:46;;;;;;;3.73;2.77;;;;;;;12.91;89.44;98804.03;5016451;28;20582;-69
2022/06/10 05:06:12;;;;;;;8.53;2.50;;;;;;;13.12;88.31;98806.34;5016910;28;20231;-68
2022/06/10 05:08:39;;;;;;;5.83;2.40;;;;;;;13.61;86.19;98809.03;5016130;28;20233;-68
2022/06/10 05:11:07;;;;;;;5.93;2.50;;;;;;;13.74;84.21;98810.78;5016356;28;20658;-69
2022/06/10 05:13:34;;;;;;;3.47;2.00;;;;;;;13.93;83.62;98807.09;5016485;28;20678;-69
2022/06/10 05:16:00;;;;;;;4.67;2.57;;;;;;;14.32;82.92;98807.47;5016852;28;20209;-69
2022/06/10 05:18:27;;;;;;;5.80;2.50;;;;;;;14.67;79.47;98818.34;5016391;28;20226;-69
2022/06/10 05:20:55;;;;;;;5.40;2.50;;;;;;;15.28;76.29;98816.22;5016790;28;20211;-69
2022/06/10 05:23:23;;;;;;;5.23;2.27;;;;;;;15.60;74.01;98820.25;5016255;28;20214;-69
2022/06/10 05:25:50;;;;;;;5.83;2.10;;;;;;;15.49;74.42;98813.84;5016441;28;20214;-69
2022/06/10 05:28:18;;;;;;;4.80;2.30;;;;;;;15.39;75.37;98823.50;5016312;28;20226;-69
2022/06/10 05:30:44;;;;;;;5.10;2.60;;;;;;;15.36;76.25;98829.28;5016277;28;20297;-69
2022/06/10 05:33:12;;;;;;;5.20;2.27;;;;;;;15.21;75.61;98826.22;5016362;28;20297;-69
2022/06/10 05:35:39;;;;;;;4.63;2.57;;;;;;;14.96;77.10;98831.72;5015715;28;20213;-69
2022/06/10 05:38:06;;;;;;;7.60;2.47;;;;;;;14.94;77.18;98830.31;5015934;28;20237;-69
2022/06/10 05:40:35;;;;;;;4.90;3.20;;;;;;;14.93;78.58;98826.81;5015607;28;20213;-69
2022/06/10 05:43:01;;;;;;;5.37;2.40;;;;;;;15.02;78.09;98827.34;5014191;28;20206;-69
2022/06/10 05:45:29;;;;;;;5.57;2.50;;;;;;;14.97;78.60;98828.00;5015992;28;20317;-68
2022/06/10 05:47:57;;;;;;;3.80;2.30;;;;;;;15.17;78.80;98825.88;5015509;28;20230;-68
2022/06/10 05:50:28;;;;;;;4.67;2.40;;;;;;;15.11;77.84;98831.31;5015614;28;20294;-69
2022/06/10 05:52:55;;;;;;;4.60;2.60;;;;;;;15.09;77.92;98833.41;5015326;28;20597;-68
2022/06/10 05:55:23;;;;;;;5.67;2.63;;;;;;;15.18;76.92;98838.22;5015901;28;20308;-68
2022/06/10 05:57:51;;;;;;;3.53;2.40;;;;;;;15.24;77.78;98837.28;5015467;28;20575;-69
2022/06/10 06:00:26;;;;;;;7.40;2.67;;;;;;;15.23;77.05;98829.47;5015681;28;20294;-69
2022/06/10 06:02:53;;;;;;;5.20;2.80;;;;;;;15.37;76.21;98836.31;5015895;28;20297;-69
2022/06/10 06:05:21;;;;;;;4.67;2.43;;;;;;;15.55;76.38;98839.69;5015441;28;20230;-69
2022/06/10 06:07:49;;;;;;;4.87;2.53;;;;;;;15.53;77.32;98847.16;5015716;28;20326;-68
2022/06/10 06:10:21;;;;;;;5.90;2.93;;;;;;;15.43;74.59;98851.47;5015811;28;20218;-68
2022/06/10 06:12:48;;;;;;;6.43;2.93;;;;;;;15.56;75.34;98843.22;5015897;28;20191;-69
2022/06/10 06:15:14;;;;;;;6.27;2.50;;;;;;;15.69;75.39;98845.69;5015337;28;20662;-68
2022/06/10 06:17:41;;;;;;;6.53;2.60;;;;;;;15.99;72.31;98854.41;5015388;28;20309;-68
2022/06/10 06:20:11;;;;;;;5.00;2.43;;;;;;;15.82;71.98;98853.47;5015254;28;20305;-68
2022/06/10 06:22:38;;;;;;;3.33;2.43;;;;;;;15.88;74.74;98850.66;5015629;28;20207;-69
2022/06/10 06:25:05;;;;;;;5.63;2.57;;;;;;;15.97;74.75;98849.28;5015172;28;20237;-68
2022/06/10 06:27:31;;;;;;;6.97;2.60;;;;;;;16.05;73.61;98848.13;5014610;28;20206;-68
2022/06/10 06:30:00;;;;;;;3.93;2.57;;;;;;;16.26;74.95;98853.69;5015273;28;20217;-69
2022/06/10 06:32:27;;;;;;;8.00;2.87;;;;;;;16.22;72.91;98855.22;5015179;28;20272;-70
2022/06/10 06:34:53;;;;;;;5.50;2.80;;;;;;;16.42;72.17;98852.97;5014134;28;20628;-69
2022/06/10 06:37:20;;;;;;;5.83;2.87;;;;;;;16.51;69.88;98848.06;5013501;28;20211;-69
2022/06/10 06:39:47;;;;;;;7.27;3.10;;;;;;;16.20;70.27;98854.63;5013168;28;20245;-69
2022/06/10 06:42:13;;;;;;;6.03;3.00;;;;;;;16.35;71.31;98859.50;5012993;28;20217;-69
2022/06/10 06:44:40;;;;;;;3.97;2.70;;;;;;;16.43;70.89;98865.38;5012794;28;20731;-69
2022/06/10 06:47:11;;;;;;;5.83;2.73;;;;;;;16.38;70.66;98867.88;5013059;28;20217;-69
2022/06/10 06:49:38;;;;;;;5.67;3.73;;;;;;;16.45;69.46;98860.56;5013297;28;20354;-69
2022/06/10 06:52:08;;;;;;;4.87;2.77;;;;;;;16.40;69.99;98862.31;5014601;28;20211;-69
2022/06/10 06:54:34;;;;;;;5.60;3.10;;;;;;;16.63;69.66;98860.41;5014498;28;20226;-69
2022/06/10 06:57:01;;;;;;;5.80;2.90;;;;;;;16.67;68.57;98856.19;5015038;28;20207;-69
2022/06/10 06:59:27;;;;;;;5.90;2.37;;;;;;;16.73;68.58;98857.91;5014455;28;20230;-69
2022/06/10 07:01:53;;;;;;;4.87;2.40;;;;;;;16.73;68.92;98857.91;5014767;28;20229;-69
2022/06/10 07:04:20;;;;;;;5.40;2.37;;;;;;;16.60;68.87;98854.69;5015097;28;20231;-68
2022/06/10 07:06:47;;;;;;;4.87;2.70;;;;;;;16.84;68.75;98861.63;5014545;28;20210;-69
2022/06/10 07:09:13;;;;;;;8.57;2.80;;;;;;;17.12;66.29;98870.50;5014573;28;20333;-68
2022/06/10 07:11:41;;;;;;;4.07;2.40;;;;;;;16.94;67.56;98862.63;5014553;28;20210;-69
2022/06/10 07:14:07;;;;;;;6.60;2.47;;;;;;;16.95;65.87;98866.94;5014378;28;20203;-69
2022/06/10 07:16:34;;;;;;;9.87;2.60;;;;;;;16.87;67.89;98863.84;5014269;28;20767;-69
2022/06/10 07:19:01;;;;;;;7.60;2.73;;;;;;;16.88;67.52;98863.56;5014437;28;20230;-69
2022/06/10 07:21:28;;;;;;;7.43;2.70;;;;;;;16.92;67.66;98867.41;5014222;28;20261;-69
2022/06/10 07:23:56;;;;;;;4.53;2.70;;;;;;;16.97;67.96;98872.09;5014351;28;20206;-69
2022/06/10 07:26:23;;;;;;;7.60;3.03;;;;;;;16.92;66.98;98870.09;5013847;28;20755;-69
2022/06/10 07:28:50;;;;;;;4.93;2.20;;;;;;;17.36;65.90;98873.88;5013932;28;20226;-69
2022/06/10 07:31:16;;;;;;;6.13;2.17;;;;;;;17.26;65.92;98871.84;5014063;28;20214;-69
2022/06/10 07:33:43;;;;;;;5.20;2.57;;;;;;;17.18;65.30;98869.53;5014630;28;20301;-69
2022/06/10 07:36:10;;;;;;;5.87;2.57;;;;;;;17.02;65.09;98869.50;5014972;28;20305;-69
2022/06/10 07:38:37;;;;;;;5.63;2.30;;;;;;;17.35;65.49;98870.38;5013824;28;20321;-69
2022/06/10 07:43:47;;;;;;;8.57;2.77;;;;;;;17.78;64.34;98859.03;5014188;28;20178;-69
2022/06/10 07:46:18;;;;;;;6.43;2.67;;;;;;;17.82;61.97;98860.97;5013674;28;20202;-69
2022/06/10 07:48:44;;;;;;;5.07;2.43;;;;;;;17.82;62.13;98866.34;5014176;28;20229;-69
2022/06/10 07:51:11;;;;;;;8.67;2.57;;;;;;;18.19;61.25;98862.06;5013802;28;20210;-69
2022/06/10 07:53:39;;;;;;;4.47;2.00;;;;;;;18.20;61.04;98857.50;5013900;28;20213;-69
2022/06/10 07:56:06;;;;;;;9.63;2.50;;;;;;;18.12;60.13;98861.44;5013540;28;20550;-69
2022/06/10 07:58:33;;;;;;;8.23;2.10;;;;;;;18.13;60.44;98864.94;5013888;28;20234;-70
2022/06/10 08:01:00;;;;;;;6.97;2.40;;;;;;;18.20;59.60;98860.19;5013457;28;20672;-69
2022/06/10 08:03:27;;;;;;;5.97;2.23;;;;;;;18.13;61.50;98863.06;5013797;28;20210;-69
2022/06/10 08:05:54;;;;;;;7.50;2.80;;;;;;;18.14;59.51;98853.13;5012675;28;20667;-69
2022/06/10 08:08:22;;;;;;;4.33;2.10;;;;;;;18.09;60.04;98855.75;5013379;28;20325;-69
2022/06/10 08:10:49;;;;;;;4.70;2.30;;;;;;;18.20;60.20;98854.81;5013162;28;20210;-69
2022/06/10 08:13:15;;;;;;;8.70;2.23;;;;;;;18.34;59.89;98846.16;5013489;28;20303;-69
2022/06/10 08:15:44;;;;;;;6.53;1.90;;;;;;;18.51;59.11;98843.41;5013782;28;20202;-69
2022/06/10 08:18:12;;;;;;;5.67;2.30;;;;;;;18.73;60.12;98849.63;5014172;28;20337;-69
2022/06/10 08:23:26;;;;;;;6.17;2.33;;;;;;;18.57;57.76;98848.63;5013800;28;20224;-69
2022/06/10 08:25:54;;;;;;;4.77;2.50;;;;;;;18.80;58.58;98851.03;5013130;28;20254;-69
2022/06/10 08:28:21;;;;;;;5.03;2.10;;;;;;;18.91;58.63;98851.97;5013352;28;20273;-70
2022/06/10 08:30:48;;;;;;;5.93;2.40;;;;;;;19.10;57.81;98848.66;5013471;28;20213;-69
2022/06/10 08:33:15;;;;;;;5.27;2.03;;;;;;;19.07;56.96;98845.66;5013519;28;20206;-70
2022/06/10 08:35:42;;;;;;;5.23;2.07;;;;;;;19.52;55.58;98852.34;5013473;28;20209;-69
2022/06/10 08:38:12;;;;;;;7.03;2.03;;;;;;;19.60;56.98;98848.38;5013442;28;20257;-69
2022/06/10 08:40:58;;;;;;;5.27;2.10;;;;;;;19.67;54.97;98851.66;5013178;28;20194;-69
2022/06/10 08:43:40;;;;;;;6.87;2.10;;;;;;;18.87;54.97;98848.97;5013449;28;20324;-68
2022/06/10 08:46:25;;;;;;;5.00;2.03;;;;;;;19.32;54.75;98851.34;5013004;28;20214;-70
2022/06/10 08:49:10;;;;;;;6.03;2.00;;;;;;;19.41;52.93;98850.63;5012143;28;20337;-68
2022/06/10 08:51:48;;;;;;;5.57;2.27;;;;;;;19.28;53.24;98845.63;5013319;28;20202;-68
2022/06/10 08:54:19;;;;;;;3.83;1.97;;;;;;;19.45;53.92;98857.13;5013356;28;20693;-69
2022/06/10 08:56:50;;;;;;;8.00;2.80;;;;;;;19.51;54.54;98853.41;5013214;28;20195;-69
2022/06/10 08:59:34;;;;;;;6.13;2.00;;;;;;;19.63;54.99;98844.34;5013109;28;20321;-70
2022/06/10 09:02:10;;;;;;;6.50;2.03;;;;;;;19.68;52.04;98840.59;5013296;28;20202;-69
2022/06/10 09:04:52;;;;;;;7.10;2.27;;;;;;;19.78;52.94;98837.97;5013037;28;20316;-69
2022/06/10 09:07:31;;;;;;;4.87;1.70;;;;;;;19.71;51.50;98841.16;5013058;28;20191;-69
2022/06/10 09:10:00;;;;;;;7.10;2.10;;;;;;;20.33;48.43;98837.56;5013257;28;20282;-69
2022/06/10 09:12:30;;;;;;;6.97;2.20;;;;;;;20.39;48.88;98841.09;5013245;28;20215;-69
2022/06/10 09:15:03;;;;;;;7.60;2.13;;;;;;;20.12;49.17;98843.09;5013463;28;20210;-69
2022/06/10 09:17:43;;;;;;;6.13;1.80;;;;;;;19.62;50.29;98846.22;5014255;28;20194;-69
2022/06/10 09:20:28;;;;;;;3.57;2.10;;;;;;;20.09;52.38;98840.91;5014966;28;20190;-69
2022/06/10 09:23:15;;;;;;;5.13;1.80;;;;;;;20.48;52.27;98842.22;5016063;28;20301;-68
2022/06/10 09:25:55;;;;;;;5.60;1.93;;;;;;;20.88;51.36;98837.78;5016446;28;20303;-69
2022/06/10 09:28:22;;;;;;;6.00;1.90;;;;;;;20.77;49.88;98836.13;5016329;28;20387;-70
2022/06/10 09:31:32;;;;;;;5.77;2.10;;;;;;;19.89;50.79;98844.25;5015983;28;20682;-69
2022/06/10 09:34:16;;;;;;;5.20;1.70;;;;;;;20.62;51.70;98843.38;5016826;28;20281;-70
2022/06/10 09:37:01;;;;;;;7.30;2.30;;;;;;;20.97;48.28;98838.09;5016340;28;20214;-69
2022/06/10 09:42:35;;;;;;;4.20;1.87;;;;;;;21.71;47.54;98837.41;5016127;28;20685;-70
2022/06/10 09:45:40;;;;;;;10.10;2.10;;;;;;;21.85;47.86;98834.97;5015966;28;20260;-67
2022/06/10 09:48:26;;;;;;;4.33;1.67;;;;;;;21.83;46.72;98846.06;5007335;28;20229;-68
2022/06/10 09:51:15;;;;;;;7.00;2.00;;;;;;;21.90;46.56;98840.38;5015711;28;20646;-68
2022/06/10 09:53:50;;;;;;;4.77;1.73;;;;;;;21.82;47.07;98843.63;5014552;28;20199;-67
2022/06/10 09:56:46;;;;;;;4.17;2.10;;;;;;;22.09;44.79;98838.72;5015520;28;20290;-67
2022/06/10 09:59:36;;;;;;;3.33;1.50;;;;;;;22.11;43.61;98833.84;5015919;28;20317;-68
2022/06/10 10:02:38;;;;;;;5.37;1.77;;;;;;;21.98;44.61;98837.13;5016102;28;20282;-68
2022/06/10 10:05:43;;;;;;;3.27;1.50;;;;;;;22.36;42.00;98833.78;5014903;28;20230;-67
2022/06/10 10:08:27;;;;;;;5.20;1.80;;;;;;;22.07;42.81;98825.44;5015529;28;20292;-68
2022/06/10 10:11:11;;;;;;;5.50;1.70;;;;;;;22.10;43.82;98821.38;5015275;28;20289;-68
2022/06/10 10:13:43;;;;;;;4.70;1.90;;;;;;;22.47;43.79;98821.84;5014525;28;20278;-68
2022/06/10 10:16:43;;;;;;;5.50;2.20;;;;;;;22.30;44.30;98824.03;5015272;28;20634;-68
2022/06/10 10:19:44;;;;;;;4.55;1.80;;;;;;;22.38;43.26;98818.06;5015233;28;20317;-68
2022/06/10 10:22:28;;;;;;;4.67;2.23;;;;;;;22.49;43.80;98812.38;5015076;28;20297;-68
2022/06/10 10:24:55;;;;;;;4.77;1.70;;;;;;;21.07;45.65;98821.91;5015883;28;20222;-68
2022/06/10 10:27:34;;;;;;;5.47;1.90;;;;;;;21.26;46.48;98812.19;5015442;28;20249;-67
2022/06/10 10:30:18;;;;;;;6.03;2.10;;;;;;;21.08;47.07;98818.94;5014960;28;20289;-68
2022/06/10 10:32:56;;;;;;;5.03;1.70;;;;;;;21.06;47.34;98828.38;5016000;28;20505;-67
2022/06/10 10:35:27;;;;;;;4.37;1.67;;;;;;;20.82;45.96;98811.00;5014943;28;20191;-68
2022/06/10 10:37:59;;;;;;;3.50;1.93;;;;;;;20.85;45.34;98810.47;5014939;28;20317;-67
2022/06/10 10:40:35;;;;;;;8.13;2.10;;;;;;;20.69;45.13;98815.03;5015475;28;20286;-67
2022/06/10 10:43:07;;;;;;;5.43;2.03;;;;;;;20.91;45.41;98809.44;5014651;28;20656;-68
2022/06/10 10:45:37;;;;;;;4.90;1.77;;;;;;;20.81;45.38;98812.06;5015096;28;20234;-67
2022/06/10 10:48:18;;;;;;;5.03;1.87;;;;;;;20.99;44.95;98814.31;5015557;28;20333;-67
2022/06/10 10:51:14;;;;;;;3.17;1.67;;;;;;;21.24;43.23;98812.47;5015085;28;20511;-67
2022/06/10 10:53:49;;;;;;;4.83;2.00;;;;;;;21.74;44.11;98812.50;5009378;28;20234;-67
2022/06/10 10:56:17;;;;;;;3.13;1.47;;;;;;;21.67;44.78;98814.66;5014497;28;20197;-68
2022/06/10 10:58:53;;;;;;;4.37;1.50;;;;;;;21.50;44.39;98814.13;5014185;28;20780;-68
2022/06/10 11:01:44;;;;;;;4.27;1.80;;;;;;;21.33;43.50;98815.44;5014490;28;20652;-68
2022/06/10 11:04:15;;;;;;;5.23;1.90;;;;;;;21.46;43.95;98815.72;5014297;28;20202;-68
2022/06/10 11:06:42;;;;;;;4.17;1.53;;;;;;;22.13;44.30;98808.13;5014456;28;20685;-68
2022/06/10 11:09:26;;;;;;;3.83;1.90;;;;;;;22.11;42.57;98804.84;5013967;28;20317;-67
2022/06/10 11:11:54;;;;;;;8.33;1.80;;;;;;;22.09;43.66;98800.78;5014101;28;20206;-68
2022/06/10 11:14:36;;;;;;;2.73;1.77;;;;;;;22.54;45.56;98803.38;5014337;28;20293;-67
2022/06/10 11:17:15;;;;;;;3.33;1.70;;;;;;;22.71;42.04;98803.84;5014394;28;20190;-68
2022/06/10 11:19:49;;;;;;;3.77;2.00;;;;;;;22.77;40.95;98797.31;5013549;28;20226;-68
2022/06/10 11:22:19;;;;;;;4.50;1.83;;;;;;;22.42;41.79;98806.38;5013725;28;20728;-67
2022/06/10 11:24:50;;;;;;;11.07;2.13;;;;;;;22.68;42.89;98790.84;5013560;28;20301;-68
2022/06/10 11:27:31;;;;;;;3.40;1.92;;;;;;;22.67;41.57;98792.78;5014006;28;20191;-69
2022/06/10 11:30:00;;;;;;;3.10;1.73;;;;;;;22.49;41.12;98792.56;5013875;28;20302;-68
2022/06/10 11:32:31;;;;;;;4.03;1.85;;;;;;;21.88;41.65;98804.66;5013850;28;20218;-68
2022/06/10 11:35:03;;;;;;;3.30;1.70;;;;;;;21.70;42.71;98794.38;5014110;28;20245;-68
2022/06/10 11:37:36;;;;;;;5.18;2.05;;;;;;;21.85;42.56;98799.78;5013802;28;20210;-68
2022/06/10 11:40:11;;;;;;;4.77;2.27;;;;;;;22.07;42.89;98792.94;5014251;28;20203;-68
2022/06/10 11:42:47;;;;;;;3.90;2.05;;;;;;;22.03;42.01;98797.28;5014199;28;20212;-68
2022/06/10 11:45:21;;;;;;;5.03;1.95;;;;;;;21.82;44.70;98784.88;5013628;28;20210;-68
2022/06/10 11:48:09;;;;;;;6.60;1.80;;;;;;;21.66;44.33;98787.84;5013906;28;20222;-68
2022/06/10 11:50:47;;;;;;;4.47;1.65;;;;;;;21.77;43.17;98781.38;5012613;28;20226;-68
2022/06/10 11:53:30;;;;;;;4.38;1.70;;;;;;;21.61;43.05;98780.53;5012645;28;20190;-68
2022/06/10 12:01:30;;;;;;;3.87;1.90;;;;;;;21.86;42.72;98771.59;5013285;28;20266;-68
2022/06/10 12:04:04;;;;;;;4.90;1.70;;;;;;;21.79;43.16;98771.09;5013164;28;20186;-67
2022/06/10 12:06:38;;;;;;;3.97;1.80;;;;;;;21.74;44.49;98774.59;5013134;28;20211;-68
2022/06/10 12:09:22;;;;;;;3.80;1.80;;;;;;;21.97;43.93;98770.53;5013070;28;20237;-67
2022/06/10 12:11:54;;;;;;;5.40;1.90;;;;;;;21.80;43.16;98768.09;5013614;28;20286;-68
2022/06/10 12:14:43;;;;;;;6.27;1.90;;;;;;;21.80;43.46;98767.28;5013578;28;20206;-68
2022/06/10 12:17:26;;;;;;;5.17;2.20;;;;;;;21.92;42.49;98773.22;5013273;28;20187;-67
2022/06/10 12:19:58;;;;;;;3.15;1.80;;;;;;;21.47;42.15;98770.56;5013164;28;20273;-67
2022/06/10 12:22:28;;;;;;;3.23;1.53;;;;;;;21.51;42.86;98767.03;5011920;28;20634;-67